sensor_id;sensor_type;location;lat;lon;timestamp;temperature;humidity
76996;DHT22;65929;49.062;10.338;2023-12-20T00:00:49;3.90;84.70
76996;DHT22;65929;49.062;10.338;2023-12-20T00:01:50;3.90;84.70
76996;DHT22;65929;49.062;10.338;2023-12-20T00:02:51;3.90;84.80
76996;DHT22;65929;49.062;10.338;2023-12-20T00:03:52;3.90;85.10
76996;DHT22;65929;49.062;10.338;2023-12-20T00:04:53;3.90;85.20
76996;DHT22;65929;49.062;10.338;2023-12-20T00:05:54;3.90;85.40
76996;DHT22;65929;49.062;10.338;2023-12-20T00:06:55;3.90;85.60
76996;DHT22;65929;49.062;10.338;2023-12-20T00:07:55;3.90;85.80
76996;DHT22;65929;49.062;10.338;2023-12-20T00:08:56;3.90;86.00
76996;DHT22;65929;49.062;10.338;2023-12-20T00:09:58;3.90;86.10
76996;DHT22;65929;49.062;10.338;2023-12-20T00:10:59;3.90;86.10
76996;DHT22;65929;49.062;10.338;2023-12-20T00:12:01;3.90;86.20
76996;DHT22;65929;49.062;10.338;2023-12-20T00:13:05;3.90;86.30
76996;DHT22;65929;49.062;10.338;2023-12-20T00:14:07;3.90;86.40
76996;DHT22;65929;49.062;10.338;2023-12-20T00:15:08;3.90;86.30
76996;DHT22;65929;49.062;10.338;2023-12-20T00:16:09;3.90;86.60
76996;DHT22;65929;49.062;10.338;2023-12-20T00:17:10;3.90;86.80
76996;DHT22;65929;49.062;10.338;2023-12-20T00:18:11;3.90;86.80
76996;DHT22;65929;49.062;10.338;2023-12-20T00:19:12;3.90;87.00
76996;DHT22;65929;49.062;10.338;2023-12-20T00:20:13;3.90;87.10
76996;DHT22;65929;49.062;10.338;2023-12-20T00:21:14;3.90;87.20
76996;DHT22;65929;49.062;10.338;2023-12-20T00:22:15;3.90;87.30
76996;DHT22;65929;49.062;10.338;2023-12-20T00:23:15;3.90;87.50
76996;DHT22;65929;49.062;10.338;2023-12-20T00:24:16;3.90;87.60
76996;DHT22;65929;49.062;10.338;2023-12-20T00:25:18;3.90;87.70
76996;DHT22;65929;49.062;10.338;2023-12-20T00:26:19;3.90;87.90
76996;DHT22;65929;49.062;10.338;2023-12-20T00:27:21;3.90;88.00
76996;DHT22;65929;49.062;10.338;2023-12-20T00:28:22;3.90;88.10
76996;DHT22;65929;49.062;10.338;2023-12-20T00:29:23;3.90;88.30
76996;DHT22;65929;49.062;10.338;2023-12-20T00:30:24;3.90;88.50
76996;DHT22;65929;49.062;10.338;2023-12-20T00:31:25;3.90;88.60
76996;DHT22;65929;49.062;10.338;2023-12-20T00:32:26;3.90;88.90
76996;DHT22;65929;49.062;10.338;2023-12-20T00:33:27;3.90;89.30
76996;DHT22;65929;49.062;10.338;2023-12-20T00:34:27;3.90;89.50
76996;DHT22;65929;49.062;10.338;2023-12-20T00:35:28;3.90;89.60
76996;DHT22;65929;49.062;10.338;2023-12-20T00:36:29;3.90;89.70
76996;DHT22;65929;49.062;10.338;2023-12-20T00:37:30;3.90;90.00
76996;DHT22;65929;49.062;10.338;2023-12-20T00:38:31;3.90;90.00
76996;DHT22;65929;49.062;10.338;2023-12-20T00:39:32;3.90;90.30
76996;DHT22;65929;49.062;10.338;2023-12-20T00:40:33;3.90;90.40
76996;DHT22;65929;49.062;10.338;2023-12-20T00:41:34;3.90;90.40
76996;DHT22;65929;49.062;10.338;2023-12-20T00:42:37;3.90;90.70
76996;DHT22;65929;49.062;10.338;2023-12-20T00:43:37;3.90;90.90
76996;DHT22;65929;49.062;10.338;2023-12-20T00:44:38;3.90;91.10
76996;DHT22;65929;49.062;10.338;2023-12-20T00:45:39;3.90;91.30
76996;DHT22;65929;49.062;10.338;2023-12-20T00:46:40;3.90;91.30
76996;DHT22;65929;49.062;10.338;2023-12-20T00:47:41;3.90;91.30
76996;DHT22;65929;49.062;10.338;2023-12-20T00:48:42;3.90;91.50
76996;DHT22;65929;49.062;10.338;2023-12-20T00:49:43;3.90;91.40
76996;DHT22;65929;49.062;10.338;2023-12-20T00:50:43;3.90;91.50
76996;DHT22;65929;49.062;10.338;2023-12-20T00:51:44;3.90;91.50
76996;DHT22;65929;49.062;10.338;2023-12-20T00:52:45;3.90;91.60
76996;DHT22;65929;49.062;10.338;2023-12-20T00:53:46;3.90;91.70
76996;DHT22;65929;49.062;10.338;2023-12-20T00:54:50;3.90;91.70
76996;DHT22;65929;49.062;10.338;2023-12-20T00:55:51;3.90;91.70
76996;DHT22;65929;49.062;10.338;2023-12-20T00:56:52;3.90;91.80
76996;DHT22;65929;49.062;10.338;2023-12-20T00:57:54;3.90;91.90
76996;DHT22;65929;49.062;10.338;2023-12-20T00:58:55;3.90;92.10
76996;DHT22;65929;49.062;10.338;2023-12-20T00:59:56;3.90;92.20
76996;DHT22;65929;49.062;10.338;2023-12-20T01:00:56;3.80;92.30
76996;DHT22;65929;49.062;10.338;2023-12-20T01:01:58;3.90;92.50
76996;DHT22;65929;49.062;10.338;2023-12-20T01:02:59;3.80;92.70
76996;DHT22;65929;49.062;10.338;2023-12-20T01:04:00;3.80;92.70
76996;DHT22;65929;49.062;10.338;2023-12-20T01:05:01;3.90;92.90
76996;DHT22;65929;49.062;10.338;2023-12-20T01:06:02;3.90;93.10
76996;DHT22;65929;49.062;10.338;2023-12-20T01:07:03;3.90;93.20
76996;DHT22;65929;49.062;10.338;2023-12-20T01:08:05;3.90;93.20
76996;DHT22;65929;49.062;10.338;2023-12-20T01:09:05;3.90;93.30
76996;DHT22;65929;49.062;10.338;2023-12-20T01:10:07;3.90;93.40
76996;DHT22;65929;49.062;10.338;2023-12-20T01:11:08;3.90;93.60
76996;DHT22;65929;49.062;10.338;2023-12-20T01:12:09;3.90;93.60
76996;DHT22;65929;49.062;10.338;2023-12-20T01:13:12;3.90;93.70
76996;DHT22;65929;49.062;10.338;2023-12-20T01:14:13;3.80;93.90
76996;DHT22;65929;49.062;10.338;2023-12-20T01:15:13;3.90;93.90
76996;DHT22;65929;49.062;10.338;2023-12-20T01:16:15;3.90;94.00
76996;DHT22;65929;49.062;10.338;2023-12-20T01:17:16;3.90;94.10
76996;DHT22;65929;49.062;10.338;2023-12-20T01:18:17;3.90;94.10
76996;DHT22;65929;49.062;10.338;2023-12-20T01:19:18;3.90;94.30
76996;DHT22;65929;49.062;10.338;2023-12-20T01:20:19;3.90;94.40
76996;DHT22;65929;49.062;10.338;2023-12-20T01:21:20;3.90;94.60
76996;DHT22;65929;49.062;10.338;2023-12-20T01:22:21;3.90;94.70
76996;DHT22;65929;49.062;10.338;2023-12-20T01:23:22;3.90;94.80
76996;DHT22;65929;49.062;10.338;2023-12-20T01:24:23;3.90;94.80
76996;DHT22;65929;49.062;10.338;2023-12-20T01:25:24;3.90;94.80
76996;DHT22;65929;49.062;10.338;2023-12-20T01:26:25;4.00;94.80
76996;DHT22;65929;49.062;10.338;2023-12-20T01:27:26;4.00;94.80
76996;DHT22;65929;49.062;10.338;2023-12-20T01:28:28;4.00;94.90
76996;DHT22;65929;49.062;10.338;2023-12-20T01:29:29;4.00;94.90
76996;DHT22;65929;49.062;10.338;2023-12-20T01:30:30;4.00;94.90
76996;DHT22;65929;49.062;10.338;2023-12-20T01:31:30;4.00;94.90
76996;DHT22;65929;49.062;10.338;2023-12-20T01:32:31;4.10;94.70
76996;DHT22;65929;49.062;10.338;2023-12-20T01:33:32;4.00;94.70
76996;DHT22;65929;49.062;10.338;2023-12-20T01:34:33;4.00;94.60
76996;DHT22;65929;49.062;10.338;2023-12-20T01:35:34;4.00;94.70
76996;DHT22;65929;49.062;10.338;2023-12-20T01:36:35;4.00;94.70
76996;DHT22;65929;49.062;10.338;2023-12-20T01:37:36;4.00;94.80
76996;DHT22;65929;49.062;10.338;2023-12-20T01:38:37;4.00;94.90
76996;DHT22;65929;49.062;10.338;2023-12-20T01:39:37;4.00;95.00
76996;DHT22;65929;49.062;10.338;2023-12-20T01:40:38;4.00;95.10
76996;DHT22;65929;49.062;10.338;2023-12-20T01:41:39;4.00;95.20
76996;DHT22;65929;49.062;10.338;2023-12-20T01:42:41;4.00;95.20
76996;DHT22;65929;49.062;10.338;2023-12-20T01:43:43;4.00;95.30
76996;DHT22;65929;49.062;10.338;2023-12-20T01:44:44;4.00;95.30
76996;DHT22;65929;49.062;10.338;2023-12-20T01:45:45;4.00;95.30
76996;DHT22;65929;49.062;10.338;2023-12-20T01:46:47;4.00;95.30
76996;DHT22;65929;49.062;10.338;2023-12-20T01:47:48;4.00;95.30
76996;DHT22;65929;49.062;10.338;2023-12-20T01:48:49;4.00;95.30
76996;DHT22;65929;49.062;10.338;2023-12-20T01:49:50;4.00;95.30
76996;DHT22;65929;49.062;10.338;2023-12-20T01:50:51;4.00;95.30
76996;DHT22;65929;49.062;10.338;2023-12-20T01:51:53;4.00;95.40
76996;DHT22;65929;49.062;10.338;2023-12-20T01:52:54;4.00;95.40
76996;DHT22;65929;49.062;10.338;2023-12-20T01:53:58;4.00;95.40
76996;DHT22;65929;49.062;10.338;2023-12-20T01:55:00;4.00;95.40
76996;DHT22;65929;49.062;10.338;2023-12-20T01:56:04;4.00;95.50
76996;DHT22;65929;49.062;10.338;2023-12-20T01:57:06;4.00;95.60
76996;DHT22;65929;49.062;10.338;2023-12-20T01:58:09;4.00;95.60
76996;DHT22;65929;49.062;10.338;2023-12-20T01:59:12;4.00;95.70
76996;DHT22;65929;49.062;10.338;2023-12-20T02:00:15;4.00;95.70
76996;DHT22;65929;49.062;10.338;2023-12-20T02:01:16;4.10;95.80
76996;DHT22;65929;49.062;10.338;2023-12-20T02:02:17;4.10;95.80
76996;DHT22;65929;49.062;10.338;2023-12-20T02:03:18;4.00;95.80
76996;DHT22;65929;49.062;10.338;2023-12-20T02:04:19;4.10;95.90
76996;DHT22;65929;49.062;10.338;2023-12-20T02:05:21;4.10;95.90
76996;DHT22;65929;49.062;10.338;2023-12-20T02:06:23;4.10;96.00
76996;DHT22;65929;49.062;10.338;2023-12-20T02:07:26;4.10;96.00
76996;DHT22;65929;49.062;10.338;2023-12-20T02:08:33;4.10;95.90
76996;DHT22;65929;49.062;10.338;2023-12-20T02:09:35;4.10;95.80
76996;DHT22;65929;49.062;10.338;2023-12-20T02:10:36;4.10;95.60
76996;DHT22;65929;49.062;10.338;2023-12-20T02:11:36;4.10;95.60
76996;DHT22;65929;49.062;10.338;2023-12-20T02:12:38;4.10;95.60
76996;DHT22;65929;49.062;10.338;2023-12-20T02:13:39;4.10;95.50
76996;DHT22;65929;49.062;10.338;2023-12-20T02:14:41;4.10;95.50
76996;DHT22;65929;49.062;10.338;2023-12-20T02:15:42;4.10;95.50
76996;DHT22;65929;49.062;10.338;2023-12-20T02:16:44;4.10;95.40
76996;DHT22;65929;49.062;10.338;2023-12-20T02:17:46;4.10;95.30
76996;DHT22;65929;49.062;10.338;2023-12-20T02:18:47;4.10;95.20
76996;DHT22;65929;49.062;10.338;2023-12-20T02:19:49;4.10;95.30
76996;DHT22;65929;49.062;10.338;2023-12-20T02:20:50;4.10;95.10
76996;DHT22;65929;49.062;10.338;2023-12-20T02:22:05;4.10;95.10
76996;DHT22;65929;49.062;10.338;2023-12-20T02:23:06;4.10;95.00
76996;DHT22;65929;49.062;10.338;2023-12-20T02:24:07;4.10;94.80
76996;DHT22;65929;49.062;10.338;2023-12-20T02:25:08;4.10;94.80
76996;DHT22;65929;49.062;10.338;2023-12-20T02:26:09;4.10;94.70
76996;DHT22;65929;49.062;10.338;2023-12-20T02:27:10;4.10;94.50
76996;DHT22;65929;49.062;10.338;2023-12-20T02:28:11;4.10;94.40
76996;DHT22;65929;49.062;10.338;2023-12-20T02:29:12;4.10;94.40
76996;DHT22;65929;49.062;10.338;2023-12-20T02:30:13;4.20;94.40
76996;DHT22;65929;49.062;10.338;2023-12-20T02:31:14;4.10;94.20
76996;DHT22;65929;49.062;10.338;2023-12-20T02:32:14;4.20;94.00
76996;DHT22;65929;49.062;10.338;2023-12-20T02:33:16;4.10;94.00
76996;DHT22;65929;49.062;10.338;2023-12-20T02:34:17;4.10;94.00
76996;DHT22;65929;49.062;10.338;2023-12-20T02:35:18;4.10;93.80
76996;DHT22;65929;49.062;10.338;2023-12-20T02:36:19;4.10;93.80
76996;DHT22;65929;49.062;10.338;2023-12-20T02:37:21;4.10;93.50
76996;DHT22;65929;49.062;10.338;2023-12-20T02:38:22;4.10;93.40
76996;DHT22;65929;49.062;10.338;2023-12-20T02:39:23;4.10;93.40
76996;DHT22;65929;49.062;10.338;2023-12-20T02:40:24;4.10;93.20
76996;DHT22;65929;49.062;10.338;2023-12-20T02:41:25;4.10;93.30
76996;DHT22;65929;49.062;10.338;2023-12-20T02:42:26;4.10;93.40
76996;DHT22;65929;49.062;10.338;2023-12-20T02:43:27;4.10;93.40
76996;DHT22;65929;49.062;10.338;2023-12-20T02:44:28;4.10;93.40
76996;DHT22;65929;49.062;10.338;2023-12-20T02:45:28;4.10;93.60
76996;DHT22;65929;49.062;10.338;2023-12-20T02:46:29;4.10;93.80
76996;DHT22;65929;49.062;10.338;2023-12-20T02:47:30;4.10;94.00
76996;DHT22;65929;49.062;10.338;2023-12-20T02:48:31;4.10;93.90
76996;DHT22;65929;49.062;10.338;2023-12-20T02:49:32;4.10;94.00
76996;DHT22;65929;49.062;10.338;2023-12-20T02:50:33;4.10;94.10
76996;DHT22;65929;49.062;10.338;2023-12-20T02:51:34;4.10;94.20
76996;DHT22;65929;49.062;10.338;2023-12-20T02:52:36;4.10;94.30
76996;DHT22;65929;49.062;10.338;2023-12-20T02:53:37;4.10;94.50
76996;DHT22;65929;49.062;10.338;2023-12-20T02:54:38;4.00;94.60
76996;DHT22;65929;49.062;10.338;2023-12-20T02:55:39;4.00;94.50
76996;DHT22;65929;49.062;10.338;2023-12-20T02:56:40;4.00;94.50
76996;DHT22;65929;49.062;10.338;2023-12-20T02:57:41;4.00;94.40
76996;DHT22;65929;49.062;10.338;2023-12-20T02:58:42;4.00;94.40
76996;DHT22;65929;49.062;10.338;2023-12-20T02:59:43;4.10;94.20
76996;DHT22;65929;49.062;10.338;2023-12-20T03:00:44;4.10;94.10
76996;DHT22;65929;49.062;10.338;2023-12-20T03:01:45;4.10;94.20
76996;DHT22;65929;49.062;10.338;2023-12-20T03:02:46;4.10;94.30
76996;DHT22;65929;49.062;10.338;2023-12-20T03:03:47;4.00;94.40
76996;DHT22;65929;49.062;10.338;2023-12-20T03:04:48;4.00;94.50
76996;DHT22;65929;49.062;10.338;2023-12-20T03:05:49;4.00;94.60
76996;DHT22;65929;49.062;10.338;2023-12-20T03:06:50;4.00;94.80
76996;DHT22;65929;49.062;10.338;2023-12-20T03:07:53;4.00;94.80
76996;DHT22;65929;49.062;10.338;2023-12-20T03:08:54;4.00;94.90
76996;DHT22;65929;49.062;10.338;2023-12-20T03:09:55;4.00;95.00
76996;DHT22;65929;49.062;10.338;2023-12-20T03:10:56;4.00;94.80
76996;DHT22;65929;49.062;10.338;2023-12-20T03:11:56;4.00;94.60
76996;DHT22;65929;49.062;10.338;2023-12-20T03:12:57;4.00;94.50
76996;DHT22;65929;49.062;10.338;2023-12-20T03:13:58;4.00;94.50
76996;DHT22;65929;49.062;10.338;2023-12-20T03:14:59;4.00;94.40
76996;DHT22;65929;49.062;10.338;2023-12-20T03:16:00;4.00;94.30
76996;DHT22;65929;49.062;10.338;2023-12-20T03:17:01;4.00;94.20
76996;DHT22;65929;49.062;10.338;2023-12-20T03:18:02;4.00;94.40
76996;DHT22;65929;49.062;10.338;2023-12-20T03:19:03;3.90;94.60
76996;DHT22;65929;49.062;10.338;2023-12-20T03:20:05;3.90;94.60
76996;DHT22;65929;49.062;10.338;2023-12-20T03:21:06;3.90;94.50
76996;DHT22;65929;49.062;10.338;2023-12-20T03:22:07;3.90;94.50
76996;DHT22;65929;49.062;10.338;2023-12-20T03:23:09;3.90;94.50
76996;DHT22;65929;49.062;10.338;2023-12-20T03:24:10;3.90;94.20
76996;DHT22;65929;49.062;10.338;2023-12-20T03:25:11;3.90;94.20
76996;DHT22;65929;49.062;10.338;2023-12-20T03:26:12;3.90;94.00
76996;DHT22;65929;49.062;10.338;2023-12-20T03:27:13;3.90;94.10
76996;DHT22;65929;49.062;10.338;2023-12-20T03:28:15;3.90;93.70
76996;DHT22;65929;49.062;10.338;2023-12-20T03:29:16;3.90;93.50
76996;DHT22;65929;49.062;10.338;2023-12-20T03:30:17;3.90;93.40
76996;DHT22;65929;49.062;10.338;2023-12-20T03:31:18;3.90;93.50
76996;DHT22;65929;49.062;10.338;2023-12-20T03:32:20;3.90;93.30
76996;DHT22;65929;49.062;10.338;2023-12-20T03:33:21;3.90;93.30
76996;DHT22;65929;49.062;10.338;2023-12-20T03:34:22;3.90;93.40
76996;DHT22;65929;49.062;10.338;2023-12-20T03:35:23;3.90;93.50
76996;DHT22;65929;49.062;10.338;2023-12-20T03:36:23;3.90;93.30
76996;DHT22;65929;49.062;10.338;2023-12-20T03:37:24;3.90;93.20
76996;DHT22;65929;49.062;10.338;2023-12-20T03:38:27;3.90;92.90
76996;DHT22;65929;49.062;10.338;2023-12-20T03:39:28;3.90;92.60
76996;DHT22;65929;49.062;10.338;2023-12-20T03:40:28;3.90;92.60
76996;DHT22;65929;49.062;10.338;2023-12-20T03:41:29;3.90;92.90
76996;DHT22;65929;49.062;10.338;2023-12-20T03:42:30;3.80;93.00
76996;DHT22;65929;49.062;10.338;2023-12-20T03:43:31;3.70;93.20
76996;DHT22;65929;49.062;10.338;2023-12-20T03:44:32;3.70;93.30
76996;DHT22;65929;49.062;10.338;2023-12-20T03:45:33;3.70;93.40
76996;DHT22;65929;49.062;10.338;2023-12-20T03:46:34;3.70;93.50
76996;DHT22;65929;49.062;10.338;2023-12-20T03:47:35;3.70;93.60
76996;DHT22;65929;49.062;10.338;2023-12-20T03:48:36;3.70;93.70
76996;DHT22;65929;49.062;10.338;2023-12-20T03:49:37;3.70;93.60
76996;DHT22;65929;49.062;10.338;2023-12-20T03:50:39;3.70;93.50
76996;DHT22;65929;49.062;10.338;2023-12-20T03:51:40;3.70;93.60
76996;DHT22;65929;49.062;10.338;2023-12-20T03:52:42;3.70;93.80
76996;DHT22;65929;49.062;10.338;2023-12-20T03:53:44;3.60;93.90
76996;DHT22;65929;49.062;10.338;2023-12-20T03:54:45;3.60;94.00
76996;DHT22;65929;49.062;10.338;2023-12-20T03:55:46;3.60;93.90
76996;DHT22;65929;49.062;10.338;2023-12-20T03:56:47;3.60;93.60
76996;DHT22;65929;49.062;10.338;2023-12-20T03:57:48;3.60;93.50
76996;DHT22;65929;49.062;10.338;2023-12-20T03:58:49;3.60;93.20
76996;DHT22;65929;49.062;10.338;2023-12-20T03:59:50;3.60;93.50
76996;DHT22;65929;49.062;10.338;2023-12-20T04:00:51;3.60;93.80
76996;DHT22;65929;49.062;10.338;2023-12-20T04:01:52;3.60;94.00
76996;DHT22;65929;49.062;10.338;2023-12-20T04:02:53;3.50;94.00
76996;DHT22;65929;49.062;10.338;2023-12-20T04:03:54;3.50;93.80
76996;DHT22;65929;49.062;10.338;2023-12-20T04:04:54;3.50;93.80
76996;DHT22;65929;49.062;10.338;2023-12-20T04:05:55;3.50;93.60
76996;DHT22;65929;49.062;10.338;2023-12-20T04:06:56;3.50;93.70
76996;DHT22;65929;49.062;10.338;2023-12-20T04:07:59;3.50;93.70
76996;DHT22;65929;49.062;10.338;2023-12-20T04:09:01;3.50;93.70
76996;DHT22;65929;49.062;10.338;2023-12-20T04:10:02;3.50;93.60
76996;DHT22;65929;49.062;10.338;2023-12-20T04:11:04;3.50;93.40
76996;DHT22;65929;49.062;10.338;2023-12-20T04:12:06;3.50;93.40
76996;DHT22;65929;49.062;10.338;2023-12-20T04:13:07;3.50;93.60
76996;DHT22;65929;49.062;10.338;2023-12-20T04:14:08;3.50;93.60
76996;DHT22;65929;49.062;10.338;2023-12-20T04:15:09;3.50;93.80
76996;DHT22;65929;49.062;10.338;2023-12-20T04:16:11;3.50;93.90
76996;DHT22;65929;49.062;10.338;2023-12-20T04:17:11;3.40;94.00
76996;DHT22;65929;49.062;10.338;2023-12-20T04:18:12;3.40;94.10
76996;DHT22;65929;49.062;10.338;2023-12-20T04:19:13;3.40;94.20
76996;DHT22;65929;49.062;10.338;2023-12-20T04:20:14;3.30;94.30
76996;DHT22;65929;49.062;10.338;2023-12-20T04:21:15;3.30;94.10
76996;DHT22;65929;49.062;10.338;2023-12-20T04:22:17;3.30;94.00
76996;DHT22;65929;49.062;10.338;2023-12-20T04:23:18;3.30;94.00
76996;DHT22;65929;49.062;10.338;2023-12-20T04:24:21;3.30;93.90
76996;DHT22;65929;49.062;10.338;2023-12-20T04:25:23;3.30;94.00
76996;DHT22;65929;49.062;10.338;2023-12-20T04:26:24;3.30;94.10
76996;DHT22;65929;49.062;10.338;2023-12-20T04:27:25;3.30;94.10
76996;DHT22;65929;49.062;10.338;2023-12-20T04:28:25;3.30;94.10
76996;DHT22;65929;49.062;10.338;2023-12-20T04:29:26;3.30;94.20
76996;DHT22;65929;49.062;10.338;2023-12-20T04:30:27;3.30;94.40
76996;DHT22;65929;49.062;10.338;2023-12-20T04:31:28;3.30;94.60
76996;DHT22;65929;49.062;10.338;2023-12-20T04:32:29;3.30;94.60
76996;DHT22;65929;49.062;10.338;2023-12-20T04:33:30;3.30;94.60
76996;DHT22;65929;49.062;10.338;2023-12-20T04:34:31;3.30;94.70
76996;DHT22;65929;49.062;10.338;2023-12-20T04:35:32;3.30;94.20
76996;DHT22;65929;49.062;10.338;2023-12-20T04:36:33;3.30;94.10
76996;DHT22;65929;49.062;10.338;2023-12-20T04:37:34;3.20;94.10
76996;DHT22;65929;49.062;10.338;2023-12-20T04:38:35;3.20;94.20
76996;DHT22;65929;49.062;10.338;2023-12-20T04:39:37;3.10;94.10
76996;DHT22;65929;49.062;10.338;2023-12-20T04:40:38;3.10;94.10
76996;DHT22;65929;49.062;10.338;2023-12-20T04:41:41;3.10;94.20
76996;DHT22;65929;49.062;10.338;2023-12-20T04:42:42;3.10;94.20
76996;DHT22;65929;49.062;10.338;2023-12-20T04:43:43;3.10;94.30
76996;DHT22;65929;49.062;10.338;2023-12-20T04:44:44;3.10;94.50
76996;DHT22;65929;49.062;10.338;2023-12-20T04:45:44;3.10;94.50
76996;DHT22;65929;49.062;10.338;2023-12-20T04:46:45;3.10;94.50
76996;DHT22;65929;49.062;10.338;2023-12-20T04:47:46;3.10;94.50
76996;DHT22;65929;49.062;10.338;2023-12-20T04:48:47;3.10;94.40
76996;DHT22;65929;49.062;10.338;2023-12-20T04:49:48;3.10;94.40
76996;DHT22;65929;49.062;10.338;2023-12-20T04:50:49;3.10;94.40
76996;DHT22;65929;49.062;10.338;2023-12-20T04:51:50;3.10;94.50
76996;DHT22;65929;49.062;10.338;2023-12-20T04:52:51;3.10;94.40
76996;DHT22;65929;49.062;10.338;2023-12-20T04:53:52;3.10;94.40
76996;DHT22;65929;49.062;10.338;2023-12-20T04:54:54;3.10;94.60
76996;DHT22;65929;49.062;10.338;2023-12-20T04:55:55;3.10;94.70
76996;DHT22;65929;49.062;10.338;2023-12-20T04:56:56;3.10;94.70
76996;DHT22;65929;49.062;10.338;2023-12-20T04:57:57;3.10;94.70
76996;DHT22;65929;49.062;10.338;2023-12-20T04:58:58;3.10;94.50
76996;DHT22;65929;49.062;10.338;2023-12-20T04:59:59;3.10;94.60
76996;DHT22;65929;49.062;10.338;2023-12-20T05:01:00;3.10;94.80
76996;DHT22;65929;49.062;10.338;2023-12-20T05:02:01;3.10;94.90
76996;DHT22;65929;49.062;10.338;2023-12-20T05:03:02;3.10;94.90
76996;DHT22;65929;49.062;10.338;2023-12-20T05:04:04;3.10;95.00
76996;DHT22;65929;49.062;10.338;2023-12-20T05:05:05;3.10;95.00
76996;DHT22;65929;49.062;10.338;2023-12-20T05:06:06;3.10;95.00
76996;DHT22;65929;49.062;10.338;2023-12-20T05:07:07;3.10;94.80
76996;DHT22;65929;49.062;10.338;2023-12-20T05:08:08;3.10;94.80
76996;DHT22;65929;49.062;10.338;2023-12-20T05:09:08;3.10;94.70
76996;DHT22;65929;49.062;10.338;2023-12-20T05:10:11;3.10;94.60
76996;DHT22;65929;49.062;10.338;2023-12-20T05:11:12;3.10;94.70
76996;DHT22;65929;49.062;10.338;2023-12-20T05:12:15;3.10;94.90
76996;DHT22;65929;49.062;10.338;2023-12-20T05:13:16;3.10;94.90
76996;DHT22;65929;49.062;10.338;2023-12-20T05:14:17;3.10;95.00
76996;DHT22;65929;49.062;10.338;2023-12-20T05:15:18;3.10;95.10
76996;DHT22;65929;49.062;10.338;2023-12-20T05:16:19;3.00;95.20
76996;DHT22;65929;49.062;10.338;2023-12-20T05:17:20;3.10;95.30
76996;DHT22;65929;49.062;10.338;2023-12-20T05:18:21;3.10;95.40
76996;DHT22;65929;49.062;10.338;2023-12-20T05:19:22;3.10;95.40
76996;DHT22;65929;49.062;10.338;2023-12-20T05:20:23;3.10;95.40
76996;DHT22;65929;49.062;10.338;2023-12-20T05:21:24;3.10;95.40
76996;DHT22;65929;49.062;10.338;2023-12-20T05:22:25;3.10;95.50
76996;DHT22;65929;49.062;10.338;2023-12-20T05:23:26;3.10;95.50
76996;DHT22;65929;49.062;10.338;2023-12-20T05:24:27;3.10;95.50
76996;DHT22;65929;49.062;10.338;2023-12-20T05:25:29;3.10;95.50
76996;DHT22;65929;49.062;10.338;2023-12-20T05:26:30;3.10;95.50
76996;DHT22;65929;49.062;10.338;2023-12-20T05:27:31;3.10;95.60
76996;DHT22;65929;49.062;10.338;2023-12-20T05:28:32;3.10;95.70
76996;DHT22;65929;49.062;10.338;2023-12-20T05:29:33;3.10;95.70
76996;DHT22;65929;49.062;10.338;2023-12-20T05:30:34;3.10;95.70
76996;DHT22;65929;49.062;10.338;2023-12-20T05:31:35;3.10;95.80
76996;DHT22;65929;49.062;10.338;2023-12-20T05:32:36;3.10;95.70
76996;DHT22;65929;49.062;10.338;2023-12-20T05:33:37;3.10;95.70
76996;DHT22;65929;49.062;10.338;2023-12-20T05:34:37;3.10;95.70
76996;DHT22;65929;49.062;10.338;2023-12-20T05:35:38;3.10;95.70
76996;DHT22;65929;49.062;10.338;2023-12-20T05:36:39;3.10;95.70
76996;DHT22;65929;49.062;10.338;2023-12-20T05:37:40;3.10;95.70
76996;DHT22;65929;49.062;10.338;2023-12-20T05:38:41;3.10;95.70
76996;DHT22;65929;49.062;10.338;2023-12-20T05:39:42;3.10;95.70
76996;DHT22;65929;49.062;10.338;2023-12-20T05:40:44;3.10;95.70
76996;DHT22;65929;49.062;10.338;2023-12-20T05:41:46;3.10;95.80
76996;DHT22;65929;49.062;10.338;2023-12-20T05:42:47;3.10;95.80
76996;DHT22;65929;49.062;10.338;2023-12-20T05:43:48;3.10;95.80
76996;DHT22;65929;49.062;10.338;2023-12-20T05:44:49;3.10;95.80
76996;DHT22;65929;49.062;10.338;2023-12-20T05:45:50;3.10;95.90
76996;DHT22;65929;49.062;10.338;2023-12-20T05:46:51;3.10;95.90
76996;DHT22;65929;49.062;10.338;2023-12-20T05:47:52;3.10;96.00
76996;DHT22;65929;49.062;10.338;2023-12-20T05:48:53;3.10;96.00
76996;DHT22;65929;49.062;10.338;2023-12-20T05:49:54;3.10;96.10
76996;DHT22;65929;49.062;10.338;2023-12-20T05:50:55;3.10;96.10
76996;DHT22;65929;49.062;10.338;2023-12-20T05:51:56;3.10;96.20
76996;DHT22;65929;49.062;10.338;2023-12-20T05:52:56;3.10;96.20
76996;DHT22;65929;49.062;10.338;2023-12-20T05:53:58;3.10;96.20
76996;DHT22;65929;49.062;10.338;2023-12-20T05:54:59;3.10;96.20
76996;DHT22;65929;49.062;10.338;2023-12-20T05:56:04;3.10;96.10
76996;DHT22;65929;49.062;10.338;2023-12-20T05:57:05;3.10;96.10
76996;DHT22;65929;49.062;10.338;2023-12-20T05:58:06;3.10;96.10
76996;DHT22;65929;49.062;10.338;2023-12-20T05:59:07;3.10;96.20
76996;DHT22;65929;49.062;10.338;2023-12-20T06:00:09;3.10;96.20
76996;DHT22;65929;49.062;10.338;2023-12-20T06:01:10;3.10;96.20
76996;DHT22;65929;49.062;10.338;2023-12-20T06:02:11;3.10;96.20
76996;DHT22;65929;49.062;10.338;2023-12-20T06:03:11;3.10;96.20
76996;DHT22;65929;49.062;10.338;2023-12-20T06:04:12;3.10;96.30
76996;DHT22;65929;49.062;10.338;2023-12-20T06:05:13;3.10;96.40
76996;DHT22;65929;49.062;10.338;2023-12-20T06:06:14;3.10;96.40
76996;DHT22;65929;49.062;10.338;2023-12-20T06:07:15;3.10;96.40
76996;DHT22;65929;49.062;10.338;2023-12-20T06:08:16;3.10;96.50
76996;DHT22;65929;49.062;10.338;2023-12-20T06:09:17;3.10;96.50
76996;DHT22;65929;49.062;10.338;2023-12-20T06:10:18;3.20;96.50
76996;DHT22;65929;49.062;10.338;2023-12-20T06:11:21;3.10;96.60
76996;DHT22;65929;49.062;10.338;2023-12-20T06:12:22;3.20;96.60
76996;DHT22;65929;49.062;10.338;2023-12-20T06:13:23;3.20;96.60
76996;DHT22;65929;49.062;10.338;2023-12-20T06:14:23;3.20;96.60
76996;DHT22;65929;49.062;10.338;2023-12-20T06:15:24;3.20;96.50
76996;DHT22;65929;49.062;10.338;2023-12-20T06:16:25;3.20;96.50
76996;DHT22;65929;49.062;10.338;2023-12-20T06:17:26;3.30;96.60
76996;DHT22;65929;49.062;10.338;2023-12-20T06:18:27;3.30;96.50
76996;DHT22;65929;49.062;10.338;2023-12-20T06:19:28;3.20;96.50
76996;DHT22;65929;49.062;10.338;2023-12-20T06:20:29;3.20;96.60
76996;DHT22;65929;49.062;10.338;2023-12-20T06:21:30;3.30;96.50
76996;DHT22;65929;49.062;10.338;2023-12-20T06:22:31;3.30;96.60
76996;DHT22;65929;49.062;10.338;2023-12-20T06:23:32;3.30;96.60
76996;DHT22;65929;49.062;10.338;2023-12-20T06:24:32;3.30;96.70
76996;DHT22;65929;49.062;10.338;2023-12-20T06:25:34;3.30;96.70
76996;DHT22;65929;49.062;10.338;2023-12-20T06:26:36;3.30;96.70